createdAt,value
2022-09-23T00:03:17.528Z,73.2
2022-09-23T00:09:17.581Z,73.4
2022-09-23T00:15:17.522Z,73.4
2022-09-23T00:21:17.543Z,73.9
2022-09-23T00:27:17.551Z,74.2
2022-09-23T00:33:17.508Z,74.5
2022-09-23T00:41:17.511Z,74.5
2022-09-23T00:47:17.543Z,75.3
2022-09-23T00:53:17.515Z,75.7
2022-09-23T00:59:17.529Z,75.8
2022-09-23T01:05:17.580Z,75.9
2022-09-23T01:11:17.541Z,76.1
2022-09-23T01:17:17.520Z,76.2
2022-09-23T01:23:17.546Z,76.2
2022-09-23T01:29:17.521Z,76.3
2022-09-23T01:35:17.530Z,76.3
2022-09-23T01:41:17.529Z,76.2
2022-09-23T01:47:17.520Z,76
2022-09-23T01:53:17.515Z,76
2022-09-23T01:59:17.534Z,76.1
2022-09-23T02:05:17.518Z,75.8
2022-09-23T02:11:17.589Z,75.8
2022-09-23T02:17:17.550Z,76.1
2022-09-23T02:23:17.515Z,76.9
2022-09-23T02:29:17.506Z,77.5
2022-09-23T02:35:17.545Z,77.6
2022-09-23T02:41:17.542Z,77.5
2022-09-23T02:47:17.525Z,78.3
2022-09-23T02:53:17.540Z,78.8
2022-09-23T02:59:17.589Z,78.1
2022-09-23T03:05:17.509Z,78.5
2022-09-23T03:11:17.621Z,78.7
2022-09-23T03:17:17.511Z,79.4
2022-09-23T03:23:17.511Z,79.8
2022-09-23T03:29:17.545Z,80
2022-09-23T03:35:17.523Z,80.2
2022-09-23T03:41:17.544Z,80.8
2022-09-23T03:47:17.522Z,80.6
2022-09-23T03:53:17.521Z,80.5
2022-09-23T03:59:17.522Z,80.3
2022-09-23T04:05:17.548Z,80.5
2022-09-23T04:11:17.526Z,81.3
2022-09-23T04:17:17.517Z,81.2
2022-09-23T04:23:17.555Z,81.5
2022-09-23T04:29:17.502Z,81.7
2022-09-23T04:35:17.532Z,81.7
2022-09-23T04:41:17.523Z,82.2
2022-09-23T04:47:17.491Z,82
2022-09-23T04:53:17.513Z,82.2
2022-09-23T04:59:17.545Z,82.4
2022-09-23T05:05:17.511Z,82.5
2022-09-23T05:11:17.501Z,82.6
2022-09-23T05:17:17.534Z,83
2022-09-23T05:23:17.507Z,82.9
2022-09-23T05:29:17.518Z,83.1
2022-09-23T05:35:17.580Z,82.9
2022-09-23T05:41:17.489Z,82.4
2022-09-23T05:47:17.491Z,82.5
2022-09-23T05:53:17.546Z,81.8
2022-09-23T05:59:17.517Z,81.4
2022-09-23T06:05:17.518Z,80.8
2022-09-23T06:11:17.537Z,77.1
2022-09-23T06:17:17.522Z,73.6
2022-09-23T06:23:17.507Z,70
2022-09-23T06:29:17.547Z,64.4
2022-09-23T06:35:26.453Z,58.8
2022-09-23T06:41:17.522Z,56.2
2022-09-23T06:47:17.527Z,54.9
2022-09-23T06:53:17.529Z,53
2022-09-23T06:59:17.508Z,53.2
2022-09-23T07:05:17.544Z,52.2
2022-09-23T07:11:17.514Z,51.7
2022-09-23T07:17:17.518Z,52.2
2022-09-23T07:23:17.567Z,51.3
2022-09-23T07:29:17.537Z,46.9
2022-09-23T07:35:17.534Z,46
2022-09-23T07:41:17.564Z,44.2
2022-09-23T07:47:17.509Z,45.4
2022-09-23T07:53:17.522Z,42.9
2022-09-23T07:59:17.558Z,39.1
2022-09-23T08:05:17.520Z,39.4
2022-09-23T08:11:17.546Z,40
2022-09-23T08:17:17.536Z,35.2
2022-09-23T08:23:17.537Z,36
2022-09-23T08:29:17.538Z,37.2
2022-09-23T08:35:17.560Z,39.9
2022-09-23T08:41:17.553Z,39
2022-09-23T08:47:17.526Z,38.6
2022-09-23T08:53:17.552Z,40.5
2022-09-23T08:59:17.549Z,39.9
2022-09-23T09:05:17.536Z,44
2022-09-23T09:11:17.564Z,47
2022-09-23T09:17:17.586Z,47.4
2022-09-23T09:23:17.527Z,51.2
2022-09-23T09:29:34.423Z,51.2
2022-09-23T09:35:17.569Z,50
2022-09-23T09:41:17.578Z,50.1
2022-09-23T09:47:17.646Z,50.2
2022-09-23T09:53:17.550Z,50.7
2022-09-23T09:59:17.504Z,49.8
2022-09-23T10:05:17.515Z,48.8
2022-09-23T10:11:17.485Z,45
2022-09-23T10:25:17.519Z,47.6
2022-09-23T10:31:17.559Z,45.5
2022-09-23T10:37:17.536Z,42.4
2022-09-23T10:43:17.643Z,42.7
2022-09-23T10:49:17.530Z,42.9
2022-09-23T10:55:17.512Z,42.9
2022-09-23T11:01:17.806Z,41.9
2022-09-23T11:07:17.536Z,38.9
2022-09-23T11:13:17.515Z,41
2022-09-23T11:19:17.585Z,42.1
2022-09-23T11:25:17.539Z,41.3
2022-09-23T11:31:17.670Z,44.8
2022-09-23T11:37:17.605Z,38.6
2022-09-23T11:43:17.569Z,38.2
2022-09-23T11:49:17.539Z,39.5
2022-09-23T11:55:23.161Z,38.2
2022-09-23T12:01:20.299Z,39.8
2022-09-23T12:07:17.558Z,38.8
2022-09-23T12:13:17.607Z,37
2022-09-23T12:19:17.594Z,38.5
2022-09-23T12:25:17.635Z,37.3
2022-09-23T12:31:17.726Z,39.4
2022-09-23T12:37:17.591Z,38.7
2022-09-23T12:43:17.559Z,38.3
2022-09-23T12:49:17.599Z,38
2022-09-23T12:55:17.592Z,37.9
2022-09-23T13:01:17.667Z,40.2
2022-09-23T13:07:17.614Z,39
2022-09-23T13:13:17.581Z,39.1
2022-09-23T13:19:17.576Z,40.2
2022-09-23T13:25:17.595Z,39
2022-09-23T13:31:17.680Z,41.3
2022-09-23T13:37:21.593Z,40.6
2022-09-23T13:43:17.638Z,40.4
2022-09-23T13:49:17.611Z,41.2
2022-09-23T13:55:17.579Z,41.9
2022-09-23T14:01:17.679Z,43.2
2022-09-23T14:07:17.613Z,42.9
2022-09-23T14:13:18.889Z,41.6
2022-09-23T14:19:17.617Z,43
2022-09-23T14:25:17.619Z,43.7
2022-09-23T14:31:17.683Z,43.5
2022-09-23T14:37:17.641Z,43.8
2022-09-23T14:43:17.625Z,44.3
2022-09-23T14:49:17.637Z,44.5
2022-09-23T14:55:17.676Z,45.6
2022-09-23T15:01:17.706Z,45.7
2022-09-23T15:07:17.613Z,45.3
2022-09-23T15:13:17.768Z,45.9
2022-09-23T15:19:17.630Z,47
2022-09-23T15:25:17.639Z,46.4
2022-09-23T15:31:17.712Z,46.1
2022-09-23T15:37:17.637Z,46.1
2022-09-23T15:43:20.696Z,45.9
2022-09-23T15:49:17.662Z,47.5
2022-09-23T15:55:17.695Z,45.1
2022-09-23T16:01:17.702Z,45.4
2022-09-23T16:07:17.654Z,47.9
2022-09-23T16:13:17.640Z,50
2022-09-23T16:19:17.684Z,52.4
2022-09-23T16:25:17.678Z,59.2
2022-09-23T16:31:17.719Z,62.9
2022-09-23T16:37:17.632Z,60.9
2022-09-23T16:43:17.665Z,61.1
2022-09-23T16:49:17.665Z,57
2022-09-23T16:55:17.641Z,56
2022-09-23T17:01:17.922Z,54
2022-09-23T17:07:17.658Z,53.4
2022-09-23T17:13:17.671Z,52.9
2022-09-23T17:19:17.680Z,52.6
2022-09-23T17:25:17.657Z,52.4
2022-09-23T17:31:17.658Z,52.8
2022-09-23T17:37:17.667Z,53.4
2022-09-23T17:43:17.639Z,54.1
2022-09-23T17:49:17.672Z,54.6
2022-09-23T17:55:17.795Z,54.2
2022-09-23T18:01:17.802Z,53.6
2022-09-23T18:07:17.656Z,53.2
2022-09-23T18:13:17.668Z,53.9
2022-09-23T18:19:17.664Z,54.4
2022-09-23T18:25:38.189Z,57.1
2022-09-23T18:31:17.771Z,57.7
2022-09-23T18:37:17.674Z,56.6
2022-09-23T18:43:19.812Z,56
2022-09-23T18:49:17.678Z,59.2
2022-09-23T18:55:17.667Z,57.7
2022-09-23T19:01:17.861Z,59
2022-09-23T19:07:17.706Z,59.9
2022-09-23T19:13:17.676Z,62.6
2022-09-23T19:19:17.651Z,63.9
2022-09-23T19:25:17.710Z,63.5
2022-09-23T19:31:17.726Z,64.5
2022-09-23T19:37:17.734Z,67.6
2022-09-23T19:43:17.693Z,67.5
2022-09-23T19:49:17.701Z,68.6
2022-09-23T19:55:17.694Z,68.1
2022-09-23T20:01:17.767Z,68.1
2022-09-23T20:07:17.669Z,68.6
2022-09-23T20:13:17.715Z,68.5
2022-09-23T20:19:17.712Z,68.7
2022-09-23T20:25:17.661Z,69.1
2022-09-23T20:31:17.711Z,68.8
2022-09-23T20:37:17.779Z,69.7
2022-09-23T20:43:17.689Z,70.2
2022-09-23T20:49:17.895Z,70.4
2022-09-23T20:55:17.699Z,70.5
2022-09-23T21:01:17.793Z,71.3
2022-09-23T21:07:17.679Z,71.3
2022-09-23T21:13:17.711Z,70.9
2022-09-23T21:19:17.693Z,73
2022-09-23T21:25:33.311Z,73.3
2022-09-23T21:31:17.816Z,74.2
2022-09-23T21:37:17.747Z,75
2022-09-23T21:43:17.705Z,75.3
2022-09-23T21:49:17.704Z,75.8
2022-09-23T21:55:17.705Z,76.7
2022-09-23T22:01:17.880Z,76.9
2022-09-23T22:07:17.726Z,78
2022-09-23T22:13:17.692Z,77.6
2022-09-23T22:19:17.674Z,76.2
2022-09-23T22:25:17.716Z,78
2022-09-23T22:31:17.735Z,79.5
2022-09-23T22:37:17.674Z,79.6
2022-09-23T22:43:17.745Z,79
2022-09-23T22:49:17.707Z,79.7
2022-09-23T22:55:17.720Z,79.7
2022-09-23T23:01:17.760Z,81
2022-09-23T23:07:17.706Z,83.4
2022-09-23T23:13:17.707Z,86.1
2022-09-23T23:19:17.741Z,87.8
2022-09-23T23:25:17.728Z,87.9
2022-09-23T23:31:17.778Z,87.7
2022-09-23T23:37:20.933Z,87.9
2022-09-23T23:43:17.688Z,89
2022-09-23T23:49:17.706Z,90.3
2022-09-23T23:55:17.722Z,91.7
